Time;durP1;ratioP1;P1;durP2;ratioP2;P2;SDS_P1;SDS_P2;PMS_P1;PMS_P2;Temp;Humidity;BMP_temperature;BMP_pressure;BME280_temperature;BME280_humidity;BME280_pressure;Samples;Min_cycle;Max_cycle;Signal;HPM_P1;HPM_P2
2022/04/22 00:01:01;;;;;;;;;11.25;11.25;;;;;;;;5027768;28;46039;-61
2022/04/22 00:03:27;;;;;;;;;14.00;12.25;;;;;;;;5034969;28;45483;-60
2022/04/22 00:05:52;;;;;;;;;12.25;12.00;;;;;;;;5041030;28;46189;-60
2022/04/22 00:08:18;;;;;;;;;9.50;9.50;;;;;;;;5018383;28;45533;-60
2022/04/22 00:13:27;;;;;;;;;10.50;10.25;;;;;;;;5036076;28;45358;-60
2022/04/22 00:15:52;;;;;;;;;10.75;10.00;;;;;;;;5040836;28;46783;-60
2022/04/22 00:18:17;;;;;;;;;12.00;10.00;;;;;;;;5027434;28;45525;-60
2022/04/22 00:20:42;;;;;;;;;12.00;10.75;;;;;;;;5029371;28;45501;-60
2022/04/22 00:23:07;;;;;;;;;10.25;10.25;;;;;;;;5039979;28;45451;-60
2022/04/22 00:25:33;;;;;;;;;10.50;9.75;;;;;;;;5027859;28;45870;-60
2022/04/22 00:27:58;;;;;;;;;8.25;8.25;;;;;;;;5025715;28;45630;-59
2022/04/22 00:30:23;;;;;;;;;10.00;9.00;;;;;;;;5024732;28;45519;-60
2022/04/22 00:32:49;;;;;;;;;12.25;12.25;;;;;;;;5023205;28;45507;-60
2022/04/22 00:35:14;;;;;;;;;10.00;9.25;;;;;;;;5020223;28;46527;-60
2022/04/22 00:37:40;;;;;;;;;12.75;11.75;;;;;;;;5022817;28;45407;-61
2022/04/22 00:40:05;;;;;;;;;12.00;12.00;;;;;;;;5026349;28;45495;-60
2022/04/22 00:42:31;;;;;;;;;10.00;10.00;;;;;;;;5025259;28;45388;-60
2022/04/22 00:44:57;;;;;;;;;9.00;9.00;;;;;;;;5022341;28;46440;-60
2022/04/22 00:47:22;;;;;;;;;10.25;10.25;;;;;;;;5022866;28;45329;-60
2022/04/22 00:49:47;;;;;;;;;10.50;10.50;;;;;;;;5040414;28;46214;-60
2022/04/22 00:52:13;;;;;;;;;7.75;5.00;;;;;;;;5026040;28;45476;-59
2022/04/22 00:54:38;;;;;;;;;12.50;10.00;;;;;;;;5027721;28;47679;-59
2022/04/22 00:57:04;;;;;;;;;10.00;10.00;;;;;;;;5029290;28;45558;-60
2022/04/22 00:59:31;;;;;;;;;8.25;8.25;;;;;;;;5020200;28;45671;-60
2022/04/22 01:01:56;;;;;;;;;11.75;10.25;;;;;;;;5023207;28;45288;-60
2022/04/22 01:09:50;;;;;;;;;8.50;7.75;;;;;;;;5021557;28;45562;-60
2022/04/22 01:12:16;;;;;;;;;9.75;7.50;;;;;;;;5039266;28;45509;-60
2022/04/22 01:14:41;;;;;;;;;10.25;9.00;;;;;;;;5031910;28;48504;-59
2022/04/22 01:17:07;;;;;;;;;9.00;9.00;;;;;;;;5015768;28;45306;-59
2022/04/22 01:19:32;;;;;;;;;9.50;9.50;;;;;;;;5027235;28;45346;-60
2022/04/22 01:21:57;;;;;;;;;13.00;12.00;;;;;;;;5023282;28;45450;-59
2022/04/22 01:24:23;;;;;;;;;12.50;8.75;;;;;;;;5031891;28;48294;-59
2022/04/22 01:26:49;;;;;;;;;10.25;9.00;;;;;;;;5022301;28;45416;-59
2022/04/22 01:29:14;;;;;;;;;7.50;7.50;;;;;;;;5021603;28;45448;-59
2022/04/22 01:31:39;;;;;;;;;10.00;9.75;;;;;;;;5026341;28;45777;-59
2022/04/22 01:34:04;;;;;;;;;6.75;6.75;;;;;;;;5027088;28;46107;-59
2022/04/22 01:36:30;;;;;;;;;8.50;8.50;;;;;;;;5017152;28;45541;-60
2022/04/22 01:38:55;;;;;;;;;8.25;8.00;;;;;;;;5019227;28;45483;-59
2022/04/22 01:41:21;;;;;;;;;9.25;9.25;;;;;;;;5028187;28;45528;-60
2022/04/22 01:43:46;;;;;;;;;9.75;8.75;;;;;;;;5031458;28;46066;-60
2022/04/22 01:46:13;;;;;;;;;9.00;8.25;;;;;;;;5019522;28;49954;-60
2022/04/22 01:48:38;;;;;;;;;8.50;8.00;;;;;;;;5021713;28;45527;-60
2022/04/22 01:51:03;;;;;;;;;8.25;8.25;;;;;;;;5019347;28;45521;-59
2022/04/22 01:53:28;;;;;;;;;9.75;9.75;;;;;;;;5027724;28;46425;-59
2022/04/22 01:55:54;;;;;;;;;8.00;8.00;;;;;;;;5020101;28;45269;-60
2022/04/22 01:58:19;;;;;;;;;6.00;6.00;;;;;;;;5019714;28;45484;-60
2022/04/22 02:00:44;;;;;;;;;7.25;7.25;;;;;;;;5019205;28;45227;-60
2022/04/22 02:03:09;;;;;;;;;10.50;8.00;;;;;;;;5019642;28;47572;-59
2022/04/22 02:05:34;;;;;;;;;8.00;8.00;;;;;;;;5018998;28;45461;-59
2022/04/22 02:08:01;;;;;;;;;7.25;7.25;;;;;;;;5021820;28;47313;-60
2022/04/22 02:10:26;;;;;;;;;10.00;8.75;;;;;;;;5032685;28;45509;-59
2022/04/22 02:12:52;;;;;;;;;7.75;7.75;;;;;;;;5027489;28;46589;-59
2022/04/22 02:15:19;;;;;;;;;6.50;6.50;;;;;;;;5018916;28;45712;-60
2022/04/22 02:17:45;;;;;;;;;9.25;8.00;;;;;;;;5029058;28;45333;-59
2022/04/22 02:20:11;;;;;;;;;9.00;9.00;;;;;;;;5033985;28;45521;-59
2022/04/22 02:22:36;;;;;;;;;9.25;8.25;;;;;;;;5031335;28;45857;-61
2022/04/22 02:25:01;;;;;;;;;8.00;8.00;;;;;;;;5024241;28;45411;-59
2022/04/22 02:30:11;;;;;;;;;8.75;8.75;;;;;;;;5023342;28;45820;-61
2022/04/22 02:32:36;;;;;;;;;8.00;8.00;;;;;;;;5027594;28;46406;-61
2022/04/22 02:35:02;;;;;;;;;6.00;6.00;;;;;;;;5030457;28;46081;-60
2022/04/22 02:37:27;;;;;;;;;8.00;8.00;;;;;;;;5017353;28;46337;-60
2022/04/22 02:39:53;;;;;;;;;6.50;6.50;;;;;;;;5021866;28;45398;-60
2022/04/22 02:47:45;;;;;;;;;9.00;9.00;;;;;;;;5025003;28;45456;-60
2022/04/22 02:50:11;;;;;;;;;7.50;7.50;;;;;;;;5032646;28;45445;-60
2022/04/22 02:52:36;;;;;;;;;12.75;10.25;;;;;;;;5019257;28;46384;-62
2022/04/22 02:55:01;;;;;;;;;9.00;9.00;;;;;;;;5033280;28;45427;-60
2022/04/22 02:57:27;;;;;;;;;10.75;8.75;;;;;;;;5024632;28;45322;-60
2022/04/22 02:59:52;;;;;;;;;5.00;5.00;;;;;;;;5030883;28;45433;-59
2022/04/22 03:02:17;;;;;;;;;12.75;10.25;;;;;;;;5030627;28;45818;-60
2022/04/22 03:04:42;;;;;;;;;7.00;7.00;;;;;;;;5031213;28;45417;-60
2022/04/22 03:07:08;;;;;;;;;9.75;9.75;;;;;;;;5029620;28;45234;-60
2022/04/22 03:09:33;;;;;;;;;9.00;8.00;;;;;;;;5022723;28;45531;-60
2022/04/22 03:11:59;;;;;;;;;9.00;9.00;;;;;;;;5029289;28;46677;-60
2022/04/22 03:14:24;;;;;;;;;9.25;9.25;;;;;;;;5034555;28;45439;-60
2022/04/22 03:16:49;;;;;;;;;9.00;8.50;;;;;;;;5033771;28;45484;-60
2022/04/22 03:19:14;;;;;;;;;8.00;4.75;;;;;;;;5035335;28;45387;-60
2022/04/22 03:21:40;;;;;;;;;9.25;8.75;;;;;;;;5036433;28;45586;-60
2022/04/22 03:24:06;;;;;;;;;11.00;9.50;;;;;;;;5030325;28;46046;-60
2022/04/22 03:26:32;;;;;;;;;11.25;10.00;;;;;;;;5025855;28;45357;-61
2022/04/22 03:28:57;;;;;;;;;9.25;8.75;;;;;;;;5033521;28;45362;-60
2022/04/22 03:31:22;;;;;;;;;11.50;9.25;;;;;;;;5033647;28;46693;-60
2022/04/22 03:33:47;;;;;;;;;9.75;9.75;;;;;;;;5036794;28;45439;-60
2022/04/22 03:36:13;;;;;;;;;13.00;9.00;;;;;;;;5033919;28;45483;-60
2022/04/22 03:38:38;;;;;;;;;16.50;14.50;;;;;;;;5034626;28;45510;-60
2022/04/22 03:41:03;;;;;;;;;18.50;17.75;;;;;;;;5031776;28;48166;-60
2022/04/22 03:43:28;;;;;;;;;16.75;16.25;;;;;;;;5034513;28;45336;-61
2022/04/22 03:45:54;;;;;;;;;30.00;28.00;;;;;;;;5036871;28;45453;-61
2022/04/22 03:48:19;;;;;;;;;37.75;33.50;;;;;;;;5032370;28;45459;-60
2022/04/22 03:50:44;;;;;;;;;42.00;36.50;;;;;;;;5034330;28;45728;-60
2022/04/22 03:53:12;;;;;;;;;52.25;40.00;;;;;;;;5031983;28;45397;-59
2022/04/22 03:55:38;;;;;;;;;51.00;40.50;;;;;;;;5033458;28;45281;-61
2022/04/22 03:58:10;;;;;;;;;53.75;44.50;;;;;;;;5036081;28;45216;-60
2022/04/22 04:00:36;;;;;;;;;51.75;41.75;;;;;;;;5035358;28;45431;-60
2022/04/22 04:03:02;;;;;;;;;56.00;46.75;;;;;;;;5033912;28;45567;-60
2022/04/22 04:05:27;;;;;;;;;56.50;47.00;;;;;;;;5033955;28;45376;-60
2022/04/22 04:07:53;;;;;;;;;57.50;46.75;;;;;;;;5032033;28;45512;-60
2022/04/22 04:15:58;;;;;;;;;61.50;49.50;;;;;;;;5034581;28;45365;-60
2022/04/22 04:18:33;;;;;;;;;59.25;49.00;;;;;;;;5034205;28;45631;-60
2022/04/22 04:23:42;;;;;;;;;27.75;25.00;;;;;;;;5025945;28;45460;-60
2022/04/22 04:26:08;;;;;;;;;53.25;44.50;;;;;;;;5032936;28;45787;-59
2022/04/22 04:28:34;;;;;;;;;54.50;44.75;;;;;;;;5033259;28;45482;-59
2022/04/22 04:30:59;;;;;;;;;54.50;42.25;;;;;;;;5035443;28;46376;-60
2022/04/22 04:33:25;;;;;;;;;50.75;43.50;;;;;;;;5032010;28;45444;-60
2022/04/22 04:35:50;;;;;;;;;47.75;39.75;;;;;;;;5029002;28;45298;-60
2022/04/22 04:38:16;;;;;;;;;38.50;34.00;;;;;;;;5024330;28;45485;-60
2022/04/22 04:40:41;;;;;;;;;45.50;38.25;;;;;;;;5031974;28;46555;-59
2022/04/22 04:43:06;;;;;;;;;42.25;36.25;;;;;;;;5029028;28;45612;-60
2022/04/22 04:45:32;;;;;;;;;43.75;36.75;;;;;;;;5030643;28;45152;-60
2022/04/22 04:47:57;;;;;;;;;33.00;31.50;;;;;;;;5028101;28;45466;-61
2022/04/22 04:50:23;;;;;;;;;36.00;33.00;;;;;;;;5027320;28;47679;-60
2022/04/22 04:52:48;;;;;;;;;39.00;34.50;;;;;;;;5021715;28;45402;-60
2022/04/22 04:55:14;;;;;;;;;35.50;33.75;;;;;;;;5033851;28;45411;-60
2022/04/22 04:57:39;;;;;;;;;30.75;29.75;;;;;;;;5030556;28;45434;-60
2022/04/22 05:00:06;;;;;;;;;35.75;32.75;;;;;;;;5029203;28;45775;-59
2022/04/22 05:02:34;;;;;;;;;34.50;29.75;;;;;;;;5032826;28;45397;-61
2022/04/22 05:05:00;;;;;;;;;34.25;29.75;;;;;;;;5032119;28;45409;-61
2022/04/22 05:07:25;;;;;;;;;32.00;31.75;;;;;;;;5033198;28;45510;-61
2022/04/22 05:09:51;;;;;;;;;34.50;33.00;;;;;;;;5025053;28;46362;-60
2022/04/22 05:12:16;;;;;;;;;33.75;32.00;;;;;;;;5024237;28;45368;-60
2022/04/22 05:14:41;;;;;;;;;32.00;31.75;;;;;;;;5026040;28;45524;-60
2022/04/22 05:17:06;;;;;;;;;39.00;33.00;;;;;;;;5033437;28;45367;-61
2022/04/22 05:19:32;;;;;;;;;33.00;32.25;;;;;;;;5033421;28;45350;-60
2022/04/22 05:21:57;;;;;;;;;41.25;35.00;;;;;;;;5033897;28;46095;-61
2022/04/22 05:24:22;;;;;;;;;37.50;34.50;;;;;;;;5028922;28;45437;-61
2022/04/22 05:26:48;;;;;;;;;43.50;34.25;;;;;;;;5027839;28;45503;-60
2022/04/22 05:34:41;;;;;;;;;46.25;38.25;;;;;;;;5018676;28;45298;-61
2022/04/22 05:37:06;;;;;;;;;45.25;37.50;;;;;;;;5029315;28;45559;-61
2022/04/22 05:39:31;;;;;;;;;49.25;41.50;;;;;;;;5047267;28;47748;-60
2022/04/22 05:41:58;;;;;;;;;52.00;42.50;;;;;;;;5028211;28;45447;-60
2022/04/22 05:44:24;;;;;;;;;38.75;34.00;;;;;;;;5024410;28;45384;-61
2022/04/22 05:46:49;;;;;;;;;42.00;36.25;;;;;;;;5031872;28;45434;-60
2022/04/22 05:49:15;;;;;;;;;45.00;37.75;;;;;;;;5033074;28;45763;-60
2022/04/22 05:51:40;;;;;;;;;42.75;37.25;;;;;;;;5034253;28;45378;-60
2022/04/22 05:54:05;;;;;;;;;43.25;37.75;;;;;;;;5032973;28;45423;-61
2022/04/22 05:56:30;;;;;;;;;44.50;38.75;;;;;;;;5027652;28;45567;-61
2022/04/22 05:58:57;;;;;;;;;51.25;42.25;;;;;;;;5016748;28;46322;-61
2022/04/22 06:01:22;;;;;;;;;52.00;43.50;;;;;;;;5032562;28;45504;-61
2022/04/22 06:03:47;;;;;;;;;56.75;47.00;;;;;;;;5035257;28;45735;-61
2022/04/22 06:06:13;;;;;;;;;49.25;40.50;;;;;;;;5027327;28;45524;-60
2022/04/22 06:11:22;;;;;;;;;52.50;43.00;;;;;;;;5023760;28;45247;-60
2022/04/22 06:13:47;;;;;;;;;54.00;42.75;;;;;;;;5030125;28;45512;-60
2022/04/22 06:16:13;;;;;;;;;51.25;41.75;;;;;;;;5032870;28;45310;-60
2022/04/22 06:18:38;;;;;;;;;44.25;39.25;;;;;;;;5033141;28;47553;-60
2022/04/22 06:21:03;;;;;;;;;52.25;42.25;;;;;;;;5030250;28;45392;-60
2022/04/22 06:23:29;;;;;;;;;47.50;41.50;;;;;;;;5031361;28;45409;-60
2022/04/22 06:25:54;;;;;;;;;42.25;37.25;;;;;;;;5022062;28;45421;-60
2022/04/22 06:28:20;;;;;;;;;43.25;35.75;;;;;;;;5035409;28;45645;-60
2022/04/22 06:30:46;;;;;;;;;32.00;30.25;;;;;;;;5037699;28;45490;-60
2022/04/22 06:33:12;;;;;;;;;36.25;34.00;;;;;;;;5035649;28;45401;-61
2022/04/22 06:35:38;;;;;;;;;39.50;34.75;;;;;;;;5035108;28;45347;-60
2022/04/22 06:38:07;;;;;;;;;38.00;34.50;;;;;;;;5031336;28;47747;-60
2022/04/22 06:46:00;;;;;;;;;31.00;29.00;;;;;;;;5032387;28;45385;-60
2022/04/22 06:48:30;;;;;;;;;21.50;21.50;;;;;;;;5030313;28;48072;-60
2022/04/22 06:50:56;;;;;;;;;33.25;29.25;;;;;;;;5029757;28;45350;-60
2022/04/22 06:53:21;;;;;;;;;30.00;27.25;;;;;;;;5033765;28;45568;-61
2022/04/22 06:55:47;;;;;;;;;23.50;21.75;;;;;;;;5033141;28;45350;-60
2022/04/22 06:58:17;;;;;;;;;22.25;22.25;;;;;;;;5033089;28;48561;-61
2022/04/22 07:00:43;;;;;;;;;26.25;25.00;;;;;;;;5035196;28;45450;-60
2022/04/22 07:03:09;;;;;;;;;27.25;27.25;;;;;;;;5033905;28;45602;-60
2022/04/22 07:05:35;;;;;;;;;25.50;22.50;;;;;;;;5034595;28;45486;-61
2022/04/22 07:08:02;;;;;;;;;27.75;25.50;;;;;;;;5034854;28;45796;-60
2022/04/22 07:10:28;;;;;;;;;25.25;24.00;;;;;;;;5035126;28;45302;-61
2022/04/22 07:12:56;;;;;;;;;22.25;22.25;;;;;;;;5032753;28;45434;-60
2022/04/22 07:15:21;;;;;;;;;23.75;21.50;;;;;;;;5032870;28;45467;-61
2022/04/22 07:17:46;;;;;;;;;21.50;18.50;;;;;;;;5034725;28;45407;-60
2022/04/22 07:20:13;;;;;;;;;20.75;20.00;;;;;;;;5034927;28;45416;-60
2022/04/22 07:22:39;;;;;;;;;22.50;21.25;;;;;;;;5033901;28;45528;-60
2022/04/22 07:25:05;;;;;;;;;21.00;17.25;;;;;;;;5036595;28;45472;-60
2022/04/22 07:27:32;;;;;;;;;20.50;18.75;;;;;;;;5032705;28;49000;-60
2022/04/22 07:29:59;;;;;;;;;15.50;15.50;;;;;;;;5028873;28;45374;-60
2022/04/22 07:32:24;;;;;;;;;23.50;20.25;;;;;;;;5026094;28;45379;-60
2022/04/22 07:34:50;;;;;;;;;14.75;14.75;;;;;;;;5032261;28;45597;-60
2022/04/22 07:37:15;;;;;;;;;14.75;14.00;;;;;;;;5035127;28;46040;-60
2022/04/22 07:39:41;;;;;;;;;14.50;13.25;;;;;;;;5036597;28;45454;-60
2022/04/22 07:42:15;;;;;;;;;16.50;15.25;;;;;;;;5033553;28;45360;-61
2022/04/22 07:47:25;;;;;;;;;13.50;13.25;;;;;;;;5034115;28;45315;-61
2022/04/22 07:49:51;;;;;;;;;16.00;15.00;;;;;;;;5033979;28;45437;-62
2022/04/22 07:52:16;;;;;;;;;15.75;15.50;;;;;;;;5032766;28;45566;-61
2022/04/22 07:54:41;;;;;;;;;14.00;14.00;;;;;;;;5035281;28;45487;-61
2022/04/22 07:57:07;;;;;;;;;18.75;16.00;;;;;;;;5034096;28;46760;-60
2022/04/22 07:59:33;;;;;;;;;14.75;13.75;;;;;;;;5028570;28;49534;-61
2022/04/22 08:01:59;;;;;;;;;14.75;14.75;;;;;;;;5018263;28;45574;-60
2022/04/22 08:04:25;;;;;;;;;14.75;14.00;;;;;;;;5035951;28;45487;-61
2022/04/22 08:06:50;;;;;;;;;17.00;14.00;;;;;;;;5036544;28;46282;-61
2022/04/22 08:09:16;;;;;;;;;15.50;15.50;;;;;;;;5029188;28;45555;-61
2022/04/22 08:11:43;;;;;;;;;14.00;14.00;;;;;;;;5025286;28;45444;-61
2022/04/22 08:14:11;;;;;;;;;16.00;15.25;;;;;;;;5032654;28;45586;-60
2022/04/22 08:16:36;;;;;;;;;15.25;15.25;;;;;;;;5033188;28;46592;-60
2022/04/22 08:19:01;;;;;;;;;12.25;11.25;;;;;;;;5031822;28;45334;-61
2022/04/22 08:21:32;;;;;;;;;17.50;16.50;;;;;;;;5030518;28;45432;-59
2022/04/22 08:23:57;;;;;;;;;14.25;13.25;;;;;;;;5029629;28;45349;-60
2022/04/22 08:26:22;;;;;;;;;18.00;17.25;;;;;;;;5033735;28;46666;-61
2022/04/22 08:28:47;;;;;;;;;24.75;21.50;;;;;;;;5033695;28;45588;-60
2022/04/22 08:31:14;;;;;;;;;14.50;14.25;;;;;;;;5034681;28;45325;-61
2022/04/22 08:33:40;;;;;;;;;15.75;15.75;;;;;;;;5035267;28;45348;-60
2022/04/22 08:36:05;;;;;;;;;14.25;13.00;;;;;;;;5032997;28;46699;-61
2022/04/22 08:38:30;;;;;;;;;12.25;11.50;;;;;;;;5032252;28;45448;-62
2022/04/22 08:40:56;;;;;;;;;13.00;13.00;;;;;;;;5033365;28;45337;-60
2022/04/22 08:43:23;;;;;;;;;13.00;13.00;;;;;;;;5031970;28;45337;-61
2022/04/22 08:45:49;;;;;;;;;12.25;11.00;;;;;;;;5014608;28;46525;-61
2022/04/22 08:50:58;;;;;;;;;14.00;14.00;;;;;;;;5033155;28;45579;-61
2022/04/22 08:53:26;;;;;;;;;14.75;14.75;;;;;;;;5031801;28;45761;-61
2022/04/22 08:55:57;;;;;;;;;15.75;15.75;;;;;;;;5031421;28;47814;-61
2022/04/22 08:58:23;;;;;;;;;13.50;13.50;;;;;;;;5016341;28;45366;-61
2022/04/22 09:00:49;;;;;;;;;9.25;8.25;;;;;;;;5028485;28;47043;-61
2022/04/22 09:03:15;;;;;;;;;10.50;10.50;;;;;;;;5028588;28;45527;-61
2022/04/22 09:05:40;;;;;;;;;15.25;15.25;;;;;;;;5033323;28;46984;-61
2022/04/22 09:08:06;;;;;;;;;13.50;13.00;;;;;;;;5033348;28;45420;-61
2022/04/22 09:10:31;;;;;;;;;5.75;4.50;;;;;;;;5033769;28;45455;-61
2022/04/22 09:12:57;;;;;;;;;10.00;8.75;;;;;;;;5035438;28;45543;-61
2022/04/22 09:15:24;;;;;;;;;10.50;9.25;;;;;;;;5032948;28;45832;-62
2022/04/22 09:17:49;;;;;;;;;7.75;7.75;;;;;;;;5028524;28;46226;-62
2022/04/22 09:20:17;;;;;;;;;12.25;11.00;;;;;;;;5020435;28;45483;-61
2022/04/22 09:22:45;;;;;;;;;10.25;8.25;;;;;;;;5031916;28;45457;-62
2022/04/22 09:25:11;;;;;;;;;9.00;9.00;;;;;;;;5033558;28;46379;-61
2022/04/22 09:27:38;;;;;;;;;10.75;9.75;;;;;;;;5033726;28;45360;-61
2022/04/22 09:30:04;;;;;;;;;9.25;8.00;;;;;;;;5033356;28;45791;-62
2022/04/22 09:32:31;;;;;;;;;6.25;6.25;;;;;;;;5026696;28;45572;-61
2022/04/22 09:34:58;;;;;;;;;8.75;8.75;;;;;;;;5019267;28;47494;-61
2022/04/22 09:42:55;;;;;;;;;10.25;10.25;;;;;;;;5034827;28;45412;-61
2022/04/22 09:45:33;;;;;;;;;7.50;7.25;;;;;;;;5032589;28;45555;-61
2022/04/22 09:47:59;;;;;;;;;7.00;6.00;;;;;;;;5031559;28;45530;-61
2022/04/22 09:50:42;;;;;;;;;6.25;6.25;;;;;;;;5030412;28;45762;-61
2022/04/22 09:53:08;;;;;;;;;7.75;7.75;;;;;;;;5034159;28;45468;-61
2022/04/22 09:55:46;;;;;;;;;10.25;8.75;;;;;;;;5036196;28;45868;-61
2022/04/22 09:58:11;;;;;;;;;7.25;7.25;;;;;;;;5035030;28;45407;-62
2022/04/22 10:00:36;;;;;;;;;6.00;6.00;;;;;;;;5025964;28;45547;-61
2022/04/22 10:03:01;;;;;;;;;5.75;5.75;;;;;;;;5025569;28;45432;-61
2022/04/22 10:05:27;;;;;;;;;6.50;6.50;;;;;;;;5026919;28;47289;-61
2022/04/22 10:07:55;;;;;;;;;7.75;6.00;;;;;;;;5027110;28;49674;-61
2022/04/22 10:10:46;;;;;;;;;7.50;6.25;;;;;;;;5030549;28;45549;-62
2022/04/22 10:13:14;;;;;;;;;6.25;6.25;;;;;;;;5024610;28;45373;-64
2022/04/22 10:15:39;;;;;;;;;4.75;4.50;;;;;;;;5032676;28;47564;-64
2022/04/22 10:18:07;;;;;;;;;5.00;3.75;;;;;;;;5032559;28;45444;-63
2022/04/22 10:20:32;;;;;;;;;6.75;5.25;;;;;;;;5022638;28;45401;-62
2022/04/22 10:22:58;;;;;;;;;11.00;11.00;;;;;;;;5027410;28;45603;-62
2022/04/22 10:25:24;;;;;;;;;6.00;4.75;;;;;;;;5040416;28;46409;-62
2022/04/22 10:27:51;;;;;;;;;4.00;4.00;;;;;;;;5029329;28;45511;-61
2022/04/22 10:30:17;;;;;;;;;6.00;6.00;;;;;;;;5030863;28;45429;-61
2022/04/22 10:32:45;;;;;;;;;5.75;5.75;;;;;;;;5038248;28;45457;-61
2022/04/22 10:35:12;;;;;;;;;6.00;6.00;;;;;;;;5046337;28;46328;-62
2022/04/22 10:37:38;;;;;;;;;4.75;4.75;;;;;;;;5029408;28;45503;-63
2022/04/22 10:40:04;;;;;;;;;5.75;5.75;;;;;;;;5047690;28;45869;-62
2022/04/22 10:42:33;;;;;;;;;7.25;6.50;;;;;;;;5027134;28;45430;-61
2022/04/22 10:47:48;;;;;;;;;6.25;6.25;;;;;;;;5036215;28;45455;-62
2022/04/22 10:50:39;;;;;;;;;5.00;5.00;;;;;;;;5033093;28;45721;-62
2022/04/22 10:53:06;;;;;;;;;5.75;5.75;;;;;;;;5034207;28;45556;-62
2022/04/22 10:55:38;;;;;;;;;7.00;7.00;;;;;;;;5039055;28;45932;-61
2022/04/22 10:58:13;;;;;;;;;4.25;4.25;;;;;;;;5060092;27;45279;-62
2022/04/22 11:00:45;;;;;;;;;6.25;6.25;;;;;;;;5036345;28;45328;-62
2022/04/22 11:03:13;;;;;;;;;6.75;6.75;;;;;;;;5035031;28;45435;-62
2022/04/22 11:05:59;;;;;;;;;6.00;6.00;;;;;;;;5035017;28;46402;-62
2022/04/22 11:08:29;;;;;;;;;4.50;4.50;;;;;;;;5034786;28;46724;-62
2022/04/22 11:10:54;;;;;;;;;7.50;5.75;;;;;;;;5035371;28;45486;-62
2022/04/22 11:13:27;;;;;;;;;5.00;5.00;;;;;;;;5035172;28;45365;-62
2022/04/22 11:15:52;;;;;;;;;6.75;6.75;;;;;;;;5037031;28;45673;-62
2022/04/22 11:18:17;;;;;;;;;4.25;4.25;;;;;;;;5015452;28;45349;-62
2022/04/22 11:20:43;;;;;;;;;4.00;4.00;;;;;;;;5029225;28;45326;-62
2022/04/22 11:23:12;;;;;;;;;5.00;5.00;;;;;;;;5035203;28;45408;-62
2022/04/22 11:25:38;;;;;;;;;5.50;5.00;;;;;;;;5024001;28;45644;-63
2022/04/22 11:28:04;;;;;;;;;6.00;6.00;;;;;;;;5017627;28;45735;-66
2022/04/22 11:30:31;;;;;;;;;6.00;6.00;;;;;;;;5028006;28;45590;-65
2022/04/22 11:33:02;;;;;;;;;6.50;6.50;;;;;;;;5030890;28;45440;-68
2022/04/22 11:35:33;;;;;;;;;5.75;5.75;;;;;;;;5031207;28;45803;-65
2022/04/22 11:37:59;;;;;;;;;5.25;5.25;;;;;;;;5031275;28;45658;-66
2022/04/22 11:40:25;;;;;;;;;5.00;5.00;;;;;;;;5032627;28;45488;-65
2022/04/22 11:42:54;;;;;;;;;6.00;6.00;;;;;;;;5028058;28;45422;-63
2022/04/22 11:45:19;;;;;;;;;6.25;6.00;;;;;;;;5024751;28;45894;-63
2022/04/22 11:47:45;;;;;;;;;5.00;4.75;;;;;;;;5025686;28;45647;-64
2022/04/22 11:50:16;;;;;;;;;5.00;4.00;;;;;;;;5055485;28;45477;-64
2022/04/22 11:52:42;;;;;;;;;6.50;5.75;;;;;;;;5029483;28;45843;-64
2022/04/22 11:55:07;;;;;;;;;4.00;4.00;;;;;;;;5027371;28;46752;-64
2022/04/22 11:57:37;;;;;;;;;3.75;3.75;;;;;;;;5032003;28;45449;-65
2022/04/22 12:05:35;;;;;;;;;3.00;3.00;;;;;;;;5023840;28;45717;-62
2022/04/22 12:08:00;;;;;;;;;4.75;4.75;;;;;;;;5026213;28;45591;-63
2022/04/22 12:10:26;;;;;;;;;5.00;5.00;;;;;;;;5019251;28;45416;-64
2022/04/22 12:12:54;;;;;;;;;5.00;5.00;;;;;;;;5021357;28;45560;-64
2022/04/22 12:15:20;;;;;;;;;5.00;4.00;;;;;;;;5027342;28;47684;-66
2022/04/22 12:17:46;;;;;;;;;6.00;6.00;;;;;;;;5045842;28;45579;-64
2022/04/22 12:20:11;;;;;;;;;6.00;5.00;;;;;;;;5029491;28;45498;-63
2022/04/22 12:22:37;;;;;;;;;5.75;5.75;;;;;;;;5031283;28;45634;-64
2022/04/22 12:25:06;;;;;;;;;4.75;4.75;;;;;;;;5029907;28;46526;-63
2022/04/22 12:27:31;;;;;;;;;4.50;4.50;;;;;;;;5027445;28;45556;-63
2022/04/22 12:30:03;;;;;;;;;4.75;4.50;;;;;;;;5027807;28;45648;-64
2022/04/22 12:32:31;;;;;;;;;6.00;5.00;;;;;;;;5030103;28;45635;-63
2022/04/22 12:35:15;;;;;;;;;6.25;6.25;;;;;;;;5031288;28;46451;-63
2022/04/22 12:37:46;;;;;;;;;2.25;2.25;;;;;;;;5032396;28;45508;-66
2022/04/22 12:40:12;;;;;;;;;1.00;1.00;;;;;;;;5030122;28;45979;-62
2022/04/22 12:42:39;;;;;;;;;3.00;3.00;;;;;;;;5028039;28;45489;-62
2022/04/22 12:53:50;;;;;;;;;5.00;5.00;;;;;;;;5032286;28;45597;-63
2022/04/22 12:56:15;;;;;;;;;4.50;3.00;;;;;;;;5032798;28;46875;-62
2022/04/22 12:58:51;;;;;;;;;5.00;4.00;;;;;;;;5033141;28;45953;-63
2022/04/22 13:01:20;;;;;;;;;3.75;3.75;;;;;;;;5032798;28;45463;-62
2022/04/22 13:03:45;;;;;;;;;2.00;2.00;;;;;;;;5032291;28;45352;-62
2022/04/22 13:06:10;;;;;;;;;3.00;3.00;;;;;;;;5032710;28;45260;-62
2022/04/22 13:08:35;;;;;;;;;3.50;3.50;;;;;;;;5029132;28;45353;-62
2022/04/22 13:11:02;;;;;;;;;3.25;2.00;;;;;;;;5019969;28;45566;-62
2022/04/22 13:13:27;;;;;;;;;3.25;3.25;;;;;;;;5032283;28;45400;-62
2022/04/22 13:15:53;;;;;;;;;5.00;4.50;;;;;;;;5035132;28;45771;-62
2022/04/22 13:18:20;;;;;;;;;4.00;4.00;;;;;;;;5028766;28;45454;-62
2022/04/22 13:20:45;;;;;;;;;3.50;3.50;;;;;;;;5024402;28;45469;-62
2022/04/22 13:23:11;;;;;;;;;3.00;3.00;;;;;;;;5031798;28;45472;-62
2022/04/22 13:25:36;;;;;;;;;4.00;3.00;;;;;;;;5031367;28;45757;-62
2022/04/22 13:28:02;;;;;;;;;4.00;4.00;;;;;;;;5037614;28;45499;-62
2022/04/22 13:30:27;;;;;;;;;4.00;4.00;;;;;;;;5036665;28;45467;-61
2022/04/22 13:32:53;;;;;;;;;5.00;5.00;;;;;;;;5034804;28;45320;-62
2022/04/22 13:35:20;;;;;;;;;4.00;3.25;;;;;;;;5035295;28;47563;-61
2022/04/22 13:37:45;;;;;;;;;2.25;2.25;;;;;;;;5036548;28;45356;-62
2022/04/22 13:40:11;;;;;;;;;3.00;3.00;;;;;;;;5037970;28;45144;-62
2022/04/22 13:42:36;;;;;;;;;3.00;3.00;;;;;;;;5033608;28;45505;-62
2022/04/22 13:53:13;;;;;;;;;4.00;4.00;;;;;;;;5025430;28;45460;-62
2022/04/22 13:55:39;;;;;;;;;4.00;4.00;;;;;;;;5035892;28;45534;-62
2022/04/22 13:58:04;;;;;;;;;3.00;3.00;;;;;;;;5038377;28;45336;-62
2022/04/22 14:00:30;;;;;;;;;2.25;2.25;;;;;;;;5051433;28;45845;-61
2022/04/22 14:02:56;;;;;;;;;3.00;3.00;;;;;;;;5030617;28;45577;-62
2022/04/22 14:05:22;;;;;;;;;3.75;3.75;;;;;;;;5024570;28;46374;-62
2022/04/22 14:07:51;;;;;;;;;3.25;3.25;;;;;;;;5035949;28;45392;-63
2022/04/22 14:10:16;;;;;;;;;3.25;3.25;;;;;;;;5029398;28;45357;-63
2022/04/22 14:12:42;;;;;;;;;3.25;3.25;;;;;;;;5029480;28;45560;-62
2022/04/22 14:15:07;;;;;;;;;3.00;2.00;;;;;;;;5031268;28;45700;-62
2022/04/22 14:17:33;;;;;;;;;3.00;3.00;;;;;;;;5028391;28;45478;-62
2022/04/22 14:19:58;;;;;;;;;4.25;3.25;;;;;;;;5024413;28;45905;-63
2022/04/22 14:22:23;;;;;;;;;3.75;3.75;;;;;;;;5024278;28;45414;-63
2022/04/22 14:24:48;;;;;;;;;6.00;4.00;;;;;;;;5033733;28;45433;-62
2022/04/22 14:27:15;;;;;;;;;4.00;4.00;;;;;;;;5033531;28;45348;-63
2022/04/22 14:29:40;;;;;;;;;4.50;4.50;;;;;;;;5030755;28;45830;-63
2022/04/22 14:32:07;;;;;;;;;4.00;4.00;;;;;;;;5036814;28;45519;-62
2022/04/22 14:34:32;;;;;;;;;4.00;4.00;;;;;;;;5040719;28;48292;-62
2022/04/22 14:36:58;;;;;;;;;6.25;5.00;;;;;;;;5043812;28;45440;-62
2022/04/22 14:39:26;;;;;;;;;3.00;3.00;;;;;;;;5035851;28;45313;-62
2022/04/22 14:41:52;;;;;;;;;4.00;4.00;;;;;;;;5037502;28;45357;-62
2022/04/22 14:44:18;;;;;;;;;5.50;5.50;;;;;;;;5034312;28;46364;-62
2022/04/22 14:46:43;;;;;;;;;6.25;5.00;;;;;;;;5042842;28;45834;-62
2022/04/22 14:49:15;;;;;;;;;4.00;4.00;;;;;;;;5043822;28;45364;-62
2022/04/22 14:51:45;;;;;;;;;5.00;5.00;;;;;;;;5040182;28;45318;-62
2022/04/22 14:54:10;;;;;;;;;4.00;4.00;;;;;;;;5040040;28;47656;-62
2022/04/22 14:56:35;;;;;;;;;4.00;4.00;;;;;;;;5031779;28;45421;-62
2022/04/22 14:59:00;;;;;;;;;3.75;3.75;;;;;;;;5048264;28;45488;-62
2022/04/22 15:01:26;;;;;;;;;4.25;4.25;;;;;;;;5039496;28;45426;-62
2022/04/22 15:03:51;;;;;;;;;5.25;3.75;;;;;;;;5044380;28;46792;-62
2022/04/22 15:06:16;;;;;;;;;7.00;5.75;;;;;;;;5033787;28;45365;-62
2022/04/22 15:08:41;;;;;;;;;6.25;5.25;;;;;;;;5029590;28;45993;-62
2022/04/22 15:11:07;;;;;;;;;4.00;4.00;;;;;;;;5048222;28;45467;-62
2022/04/22 15:13:34;;;;;;;;;2.75;2.75;;;;;;;;5037499;28;45597;-63
2022/04/22 15:16:00;;;;;;;;;4.75;4.00;;;;;;;;5059334;28;45413;-62
2022/04/22 15:26:38;;;;;;;;;5.00;4.25;;;;;;;;5032550;28;45374;-62
2022/04/22 15:29:06;;;;;;;;;4.75;4.75;;;;;;;;5049834;28;45578;-63
2022/04/22 15:31:32;;;;;;;;;4.75;4.75;;;;;;;;5037541;28;45487;-63
2022/04/22 15:33:57;;;;;;;;;4.00;4.00;;;;;;;;5042526;28;45401;-63
2022/04/22 15:36:22;;;;;;;;;3.00;3.00;;;;;;;;5038100;28;45467;-63
2022/04/22 15:38:49;;;;;;;;;5.00;4.00;;;;;;;;5033408;28;45571;-62
2022/04/22 15:41:15;;;;;;;;;5.00;5.00;;;;;;;;5046725;28;45809;-63
2022/04/22 15:43:42;;;;;;;;;5.00;5.00;;;;;;;;5036410;28;46950;-62
2022/04/22 15:46:07;;;;;;;;;7.50;7.00;;;;;;;;5043709;28;45447;-62
2022/04/22 15:48:34;;;;;;;;;3.50;3.00;;;;;;;;5035502;28;45410;-64